sensor_id;sensor_type;location;lat;lon;timestamp;P1;durP1;ratioP1;P2;durP2;ratioP2
74269;SDS011;62754;48.252;11.654;2023-04-16T00:00:41;6.05;;;3.72;;
74269;SDS011;62754;48.252;11.654;2023-04-16T00:03:09;4.13;;;1.88;;
74269;SDS011;62754;48.252;11.654;2023-04-16T00:05:37;3.33;;;1.67;;
74269;SDS011;62754;48.252;11.654;2023-04-16T00:08:03;4.80;;;2.20;;
74269;SDS011;62754;48.252;11.654;2023-04-16T00:10:33;3.50;;;2.00;;
74269;SDS011;62754;48.252;11.654;2023-04-16T00:12:59;3.67;;;1.98;;
74269;SDS011;62754;48.252;11.654;2023-04-16T00:15:27;3.00;;;1.77;;
74269;SDS011;62754;48.252;11.654;2023-04-16T00:17:53;3.72;;;2.00;;
74269;SDS011;62754;48.252;11.654;2023-04-16T00:20:21;3.28;;;1.70;;
74269;SDS011;62754;48.252;11.654;2023-04-16T00:22:47;4.03;;;2.00;;
74269;SDS011;62754;48.252;11.654;2023-04-16T00:25:12;3.95;;;1.95;;
74269;SDS011;62754;48.252;11.654;2023-04-16T00:27:38;4.03;;;1.98;;
74269;SDS011;62754;48.252;11.654;2023-04-16T00:30:06;3.65;;;1.80;;
74269;SDS011;62754;48.252;11.654;2023-04-16T00:32:32;3.97;;;2.00;;
74269;SDS011;62754;48.252;11.654;2023-04-16T00:35:01;2.95;;;1.83;;
74269;SDS011;62754;48.252;11.654;2023-04-16T00:37:29;4.22;;;2.20;;
74269;SDS011;62754;48.252;11.654;2023-04-16T00:39:55;4.22;;;1.92;;
74269;SDS011;62754;48.252;11.654;2023-04-16T00:42:21;6.53;;;2.20;;
74269;SDS011;62754;48.252;11.654;2023-04-16T00:44:46;3.63;;;2.10;;
74269;SDS011;62754;48.252;11.654;2023-04-16T00:47:12;4.75;;;2.42;;
74269;SDS011;62754;48.252;11.654;2023-04-16T00:49:40;5.00;;;3.00;;
74269;SDS011;62754;48.252;11.654;2023-04-16T00:52:10;3.78;;;2.15;;
74269;SDS011;62754;48.252;11.654;2023-04-16T00:54:39;4.20;;;2.28;;
74269;SDS011;62754;48.252;11.654;2023-04-16T00:57:05;5.45;;;2.70;;
74269;SDS011;62754;48.252;11.654;2023-04-16T00:59:33;4.60;;;3.08;;
74269;SDS011;62754;48.252;11.654;2023-04-16T01:02:01;4.60;;;2.90;;
74269;SDS011;62754;48.252;11.654;2023-04-16T01:04:27;5.28;;;3.25;;
74269;SDS011;62754;48.252;11.654;2023-04-16T01:06:53;6.85;;;3.35;;
74269;SDS011;62754;48.252;11.654;2023-04-16T01:09:19;5.05;;;3.25;;
74269;SDS011;62754;48.252;11.654;2023-04-16T01:11:45;4.93;;;3.08;;
74269;SDS011;62754;48.252;11.654;2023-04-16T01:14:11;6.05;;;3.22;;
74269;SDS011;62754;48.252;11.654;2023-04-16T01:16:38;5.88;;;3.40;;
74269;SDS011;62754;48.252;11.654;2023-04-16T01:19:09;6.07;;;3.75;;
74269;SDS011;62754;48.252;11.654;2023-04-16T01:21:34;5.60;;;3.45;;
74269;SDS011;62754;48.252;11.654;2023-04-16T01:24:03;5.95;;;4.07;;
74269;SDS011;62754;48.252;11.654;2023-04-16T01:26:31;5.53;;;3.63;;
74269;SDS011;62754;48.252;11.654;2023-04-16T01:28:59;5.18;;;3.60;;
74269;SDS011;62754;48.252;11.654;2023-04-16T01:31:27;6.30;;;3.65;;
74269;SDS011;62754;48.252;11.654;2023-04-16T01:33:55;7.13;;;3.97;;
74269;SDS011;62754;48.252;11.654;2023-04-16T01:36:21;6.80;;;4.55;;
74269;SDS011;62754;48.252;11.654;2023-04-16T01:38:47;6.55;;;3.92;;
74269;SDS011;62754;48.252;11.654;2023-04-16T01:41:12;5.78;;;3.60;;
74269;SDS011;62754;48.252;11.654;2023-04-16T01:43:38;6.13;;;3.88;;
74269;SDS011;62754;48.252;11.654;2023-04-16T01:46:11;5.82;;;3.83;;
74269;SDS011;62754;48.252;11.654;2023-04-16T01:48:39;6.60;;;4.18;;
74269;SDS011;62754;48.252;11.654;2023-04-16T01:51:05;7.80;;;4.30;;
74269;SDS011;62754;48.252;11.654;2023-04-16T01:53:33;6.45;;;4.05;;
74269;SDS011;62754;48.252;11.654;2023-04-16T01:56:01;7.03;;;4.07;;
74269;SDS011;62754;48.252;11.654;2023-04-16T01:58:29;6.95;;;4.70;;
74269;SDS011;62754;48.252;11.654;2023-04-16T02:00:58;8.25;;;4.55;;
74269;SDS011;62754;48.252;11.654;2023-04-16T02:03:28;7.07;;;4.55;;
74269;SDS011;62754;48.252;11.654;2023-04-16T02:05:54;6.28;;;3.80;;
74269;SDS011;62754;48.252;11.654;2023-04-16T02:08:22;6.45;;;4.07;;
74269;SDS011;62754;48.252;11.654;2023-04-16T02:10:48;6.07;;;3.80;;
74269;SDS011;62754;48.252;11.654;2023-04-16T02:13:17;6.15;;;3.70;;
74269;SDS011;62754;48.252;11.654;2023-04-16T02:15:43;5.55;;;3.67;;
74269;SDS011;62754;48.252;11.654;2023-04-16T02:18:10;6.40;;;4.20;;
74269;SDS011;62754;48.252;11.654;2023-04-16T02:20:38;6.00;;;4.00;;
74269;SDS011;62754;48.252;11.654;2023-04-16T02:23:08;5.20;;;3.33;;
74269;SDS011;62754;48.252;11.654;2023-04-16T02:25:43;6.60;;;3.92;;
74269;SDS011;62754;48.252;11.654;2023-04-16T02:28:13;5.75;;;3.20;;
74269;SDS011;62754;48.252;11.654;2023-04-16T02:30:43;6.75;;;3.40;;
74269;SDS011;62754;48.252;11.654;2023-04-16T02:33:10;4.97;;;2.72;;
74269;SDS011;62754;48.252;11.654;2023-04-16T02:35:38;4.97;;;2.75;;
74269;SDS011;62754;48.252;11.654;2023-04-16T02:38:05;4.32;;;2.40;;
74269;SDS011;62754;48.252;11.654;2023-04-16T02:40:33;4.30;;;2.33;;
74269;SDS011;62754;48.252;11.654;2023-04-16T02:42:59;2.95;;;1.80;;
74269;SDS011;62754;48.252;11.654;2023-04-16T02:45:25;3.72;;;2.22;;
74269;SDS011;62754;48.252;11.654;2023-04-16T02:47:53;3.70;;;2.13;;
74269;SDS011;62754;48.252;11.654;2023-04-16T02:50:18;3.22;;;2.10;;
74269;SDS011;62754;48.252;11.654;2023-04-16T02:52:44;2.88;;;1.60;;
74269;SDS011;62754;48.252;11.654;2023-04-16T02:55:13;3.97;;;2.05;;
74269;SDS011;62754;48.252;11.654;2023-04-16T02:57:39;3.90;;;2.10;;
74269;SDS011;62754;48.252;11.654;2023-04-16T03:00:07;3.58;;;2.05;;
74269;SDS011;62754;48.252;11.654;2023-04-16T03:02:33;3.97;;;2.20;;
74269;SDS011;62754;48.252;11.654;2023-04-16T03:05:02;3.70;;;2.13;;
74269;SDS011;62754;48.252;11.654;2023-04-16T03:07:30;4.30;;;2.30;;
74269;SDS011;62754;48.252;11.654;2023-04-16T03:09:56;3.63;;;2.10;;
74269;SDS011;62754;48.252;11.654;2023-04-16T03:12:22;4.07;;;2.10;;
74269;SDS011;62754;48.252;11.654;2023-04-16T03:14:49;3.47;;;1.83;;
74269;SDS011;62754;48.252;11.654;2023-04-16T03:17:17;4.00;;;2.03;;
74269;SDS011;62754;48.252;11.654;2023-04-16T03:19:43;3.55;;;2.05;;
74269;SDS011;62754;48.252;11.654;2023-04-16T03:22:08;3.80;;;2.00;;
74269;SDS011;62754;48.252;11.654;2023-04-16T03:24:36;4.47;;;2.38;;
74269;SDS011;62754;48.252;11.654;2023-04-16T03:27:04;4.10;;;2.30;;
74269;SDS011;62754;48.252;11.654;2023-04-16T03:29:34;3.40;;;2.00;;
74269;SDS011;62754;48.252;11.654;2023-04-16T03:32:01;4.25;;;2.40;;
74269;SDS011;62754;48.252;11.654;2023-04-16T03:34:26;5.47;;;2.90;;
74269;SDS011;62754;48.252;11.654;2023-04-16T03:36:55;4.63;;;2.55;;
74269;SDS011;62754;48.252;11.654;2023-04-16T03:39:20;4.30;;;2.80;;
74269;SDS011;62754;48.252;11.654;2023-04-16T03:41:48;4.00;;;2.42;;
74269;SDS011;62754;48.252;11.654;2023-04-16T03:44:14;5.53;;;2.65;;
74269;SDS011;62754;48.252;11.654;2023-04-16T03:46:42;5.78;;;2.83;;
74269;SDS011;62754;48.252;11.654;2023-04-16T03:49:13;4.32;;;2.63;;
74269;SDS011;62754;48.252;11.654;2023-04-16T03:51:41;5.28;;;3.17;;
74269;SDS011;62754;48.252;11.654;2023-04-16T03:54:11;4.70;;;2.72;;
74269;SDS011;62754;48.252;11.654;2023-04-16T03:56:38;4.97;;;3.10;;
74269;SDS011;62754;48.252;11.654;2023-04-16T03:59:06;5.40;;;3.22;;
74269;SDS011;62754;48.252;11.654;2023-04-16T04:01:32;5.93;;;2.95;;
74269;SDS011;62754;48.252;11.654;2023-04-16T04:04:04;5.00;;;2.80;;
74269;SDS011;62754;48.252;11.654;2023-04-16T04:06:32;5.38;;;3.13;;
74269;SDS011;62754;48.252;11.654;2023-04-16T04:08:58;5.30;;;3.13;;
74269;SDS011;62754;48.252;11.654;2023-04-16T04:11:23;5.53;;;3.40;;
74269;SDS011;62754;48.252;11.654;2023-04-16T04:13:52;5.18;;;3.22;;
74269;SDS011;62754;48.252;11.654;2023-04-16T04:16:17;6.15;;;3.78;;
74269;SDS011;62754;48.252;11.654;2023-04-16T04:18:43;5.47;;;3.08;;
74269;SDS011;62754;48.252;11.654;2023-04-16T04:21:11;4.63;;;2.88;;
74269;SDS011;62754;48.252;11.654;2023-04-16T04:23:39;5.80;;;3.40;;
74269;SDS011;62754;48.252;11.654;2023-04-16T04:26:05;5.65;;;3.05;;
74269;SDS011;62754;48.252;11.654;2023-04-16T04:28:33;4.88;;;3.17;;
74269;SDS011;62754;48.252;11.654;2023-04-16T04:30:59;6.30;;;3.10;;
74269;SDS011;62754;48.252;11.654;2023-04-16T04:33:26;5.57;;;3.35;;
74269;SDS011;62754;48.252;11.654;2023-04-16T04:35:53;6.15;;;3.47;;
74269;SDS011;62754;48.252;11.654;2023-04-16T04:38:21;5.07;;;3.28;;
74269;SDS011;62754;48.252;11.654;2023-04-16T04:40:47;5.05;;;3.17;;
74269;SDS011;62754;48.252;11.654;2023-04-16T04:43:15;6.57;;;4.00;;
74269;SDS011;62754;48.252;11.654;2023-04-16T04:45:41;5.90;;;3.47;;
74269;SDS011;62754;48.252;11.654;2023-04-16T04:48:09;6.82;;;4.05;;
74269;SDS011;62754;48.252;11.654;2023-04-16T04:50:35;4.55;;;2.88;;
74269;SDS011;62754;48.252;11.654;2023-04-16T04:53:03;5.53;;;3.35;;
74269;SDS011;62754;48.252;11.654;2023-04-16T04:55:29;5.53;;;3.50;;
74269;SDS011;62754;48.252;11.654;2023-04-16T04:57:57;6.10;;;3.42;;
74269;SDS011;62754;48.252;11.654;2023-04-16T05:00:25;5.57;;;3.10;;
74269;SDS011;62754;48.252;11.654;2023-04-16T05:02:51;5.43;;;3.35;;
74269;SDS011;62754;48.252;11.654;2023-04-16T05:05:19;5.13;;;3.42;;
74269;SDS011;62754;48.252;11.654;2023-04-16T05:07:46;5.78;;;3.67;;
74269;SDS011;62754;48.252;11.654;2023-04-16T05:10:12;6.63;;;3.78;;
74269;SDS011;62754;48.252;11.654;2023-04-16T05:12:40;6.82;;;3.70;;
74269;SDS011;62754;48.252;11.654;2023-04-16T05:15:06;6.35;;;3.60;;
74269;SDS011;62754;48.252;11.654;2023-04-16T05:17:32;6.68;;;3.95;;
74269;SDS011;62754;48.252;11.654;2023-04-16T05:20:01;6.22;;;3.50;;
74269;SDS011;62754;48.252;11.654;2023-04-16T05:22:26;5.80;;;3.65;;
74269;SDS011;62754;48.252;11.654;2023-04-16T05:24:54;6.05;;;3.42;;
74269;SDS011;62754;48.252;11.654;2023-04-16T05:27:20;7.05;;;4.00;;
74269;SDS011;62754;48.252;11.654;2023-04-16T05:29:46;7.25;;;3.78;;
74269;SDS011;62754;48.252;11.654;2023-04-16T05:32:14;6.20;;;3.88;;
74269;SDS011;62754;48.252;11.654;2023-04-16T05:34:41;5.07;;;3.25;;
74269;SDS011;62754;48.252;11.654;2023-04-16T05:37:07;5.13;;;3.38;;
74269;SDS011;62754;48.252;11.654;2023-04-16T05:39:33;5.03;;;3.35;;
74269;SDS011;62754;48.252;11.654;2023-04-16T05:41:59;5.68;;;3.75;;
74269;SDS011;62754;48.252;11.654;2023-04-16T05:44:27;5.38;;;3.35;;
74269;SDS011;62754;48.252;11.654;2023-04-16T05:46:53;5.50;;;3.58;;
74269;SDS011;62754;48.252;11.654;2023-04-16T05:49:21;6.20;;;3.63;;
74269;SDS011;62754;48.252;11.654;2023-04-16T05:51:47;5.18;;;3.22;;
74269;SDS011;62754;48.252;11.654;2023-04-16T05:54:13;5.20;;;3.13;;
74269;SDS011;62754;48.252;11.654;2023-04-16T05:56:38;6.10;;;2.92;;
74269;SDS011;62754;48.252;11.654;2023-04-16T05:59:07;5.32;;;3.33;;
74269;SDS011;62754;48.252;11.654;2023-04-16T06:01:34;4.50;;;2.58;;
74269;SDS011;62754;48.252;11.654;2023-04-16T06:04:00;4.63;;;2.83;;
74269;SDS011;62754;48.252;11.654;2023-04-16T06:06:28;5.10;;;3.00;;
74269;SDS011;62754;48.252;11.654;2023-04-16T06:08:54;4.90;;;2.67;;
74269;SDS011;62754;48.252;11.654;2023-04-16T06:11:22;4.43;;;2.65;;
74269;SDS011;62754;48.252;11.654;2023-04-16T06:13:50;6.47;;;3.22;;
74269;SDS011;62754;48.252;11.654;2023-04-16T06:16:16;4.57;;;2.40;;
74269;SDS011;62754;48.252;11.654;2023-04-16T06:18:42;4.45;;;2.70;;
74269;SDS011;62754;48.252;11.654;2023-04-16T06:21:07;4.93;;;2.95;;
74269;SDS011;62754;48.252;11.654;2023-04-16T06:23:33;3.75;;;2.45;;
74269;SDS011;62754;48.252;11.654;2023-04-16T06:26:01;4.38;;;2.45;;
74269;SDS011;62754;48.252;11.654;2023-04-16T06:28:29;4.85;;;2.85;;
74269;SDS011;62754;48.252;11.654;2023-04-16T06:30:55;3.55;;;1.92;;
74269;SDS011;62754;48.252;11.654;2023-04-16T06:33:21;4.00;;;2.47;;
74269;SDS011;62754;48.252;11.654;2023-04-16T06:35:47;4.03;;;2.35;;
74269;SDS011;62754;48.252;11.654;2023-04-16T06:38:13;3.40;;;2.15;;
74269;SDS011;62754;48.252;11.654;2023-04-16T06:40:41;3.60;;;2.15;;
74269;SDS011;62754;48.252;11.654;2023-04-16T06:43:07;3.30;;;2.10;;
74269;SDS011;62754;48.252;11.654;2023-04-16T06:45:32;3.22;;;2.13;;
74269;SDS011;62754;48.252;11.654;2023-04-16T06:47:58;2.97;;;1.88;;
74269;SDS011;62754;48.252;11.654;2023-04-16T06:50:29;3.03;;;1.77;;
74269;SDS011;62754;48.252;11.654;2023-04-16T06:52:54;2.53;;;1.50;;
74269;SDS011;62754;48.252;11.654;2023-04-16T06:55:23;2.80;;;1.55;;
74269;SDS011;62754;48.252;11.654;2023-04-16T06:57:49;2.13;;;1.17;;
74269;SDS011;62754;48.252;11.654;2023-04-16T07:00:15;2.72;;;1.38;;
74269;SDS011;62754;48.252;11.654;2023-04-16T07:02:43;2.30;;;1.27;;
74269;SDS011;62754;48.252;11.654;2023-04-16T07:05:08;2.45;;;1.40;;
74269;SDS011;62754;48.252;11.654;2023-04-16T07:07:34;2.30;;;1.20;;
74269;SDS011;62754;48.252;11.654;2023-04-16T07:10:00;2.38;;;1.20;;
74269;SDS011;62754;48.252;11.654;2023-04-16T07:12:26;2.60;;;1.40;;
74269;SDS011;62754;48.252;11.654;2023-04-16T07:14:54;2.63;;;1.20;;
74269;SDS011;62754;48.252;11.654;2023-04-16T07:17:20;2.10;;;1.17;;
74269;SDS011;62754;48.252;11.654;2023-04-16T07:19:45;1.80;;;0.90;;
74269;SDS011;62754;48.252;11.654;2023-04-16T07:22:11;2.10;;;0.93;;
74269;SDS011;62754;48.252;11.654;2023-04-16T07:24:37;1.38;;;0.68;;
74269;SDS011;62754;48.252;11.654;2023-04-16T07:27:05;1.60;;;0.80;;
74269;SDS011;62754;48.252;11.654;2023-04-16T07:29:33;1.15;;;0.50;;
74269;SDS011;62754;48.252;11.654;2023-04-16T07:32:04;1.70;;;0.70;;
74269;SDS011;62754;48.252;11.654;2023-04-16T07:34:31;3.88;;;2.30;;
74269;SDS011;62754;48.252;11.654;2023-04-16T07:36:57;1.95;;;0.90;;
74269;SDS011;62754;48.252;11.654;2023-04-16T07:39:23;1.58;;;0.80;;
74269;SDS011;62754;48.252;11.654;2023-04-16T07:41:51;1.50;;;0.52;;
74269;SDS011;62754;48.252;11.654;2023-04-16T07:44:19;0.98;;;0.50;;
74269;SDS011;62754;48.252;11.654;2023-04-16T07:46:47;1.58;;;0.63;;
74269;SDS011;62754;48.252;11.654;2023-04-16T07:49:13;1.40;;;0.60;;
74269;SDS011;62754;48.252;11.654;2023-04-16T07:51:39;0.77;;;0.40;;
74269;SDS011;62754;48.252;11.654;2023-04-16T07:54:10;0.82;;;0.38;;
74269;SDS011;62754;48.252;11.654;2023-04-16T07:56:38;1.27;;;0.60;;
74269;SDS011;62754;48.252;11.654;2023-04-16T07:59:08;1.13;;;0.40;;
74269;SDS011;62754;48.252;11.654;2023-04-16T08:01:36;1.27;;;0.30;;
74269;SDS011;62754;48.252;11.654;2023-04-16T08:04:06;0.93;;;0.30;;
74269;SDS011;62754;48.252;11.654;2023-04-16T08:06:34;1.30;;;0.47;;
74269;SDS011;62754;48.252;11.654;2023-04-16T08:09:00;0.75;;;0.38;;
74269;SDS011;62754;48.252;11.654;2023-04-16T08:11:26;1.05;;;0.32;;
74269;SDS011;62754;48.252;11.654;2023-04-16T08:13:52;0.60;;;0.40;;
74269;SDS011;62754;48.252;11.654;2023-04-16T08:16:18;0.82;;;0.40;;
74269;SDS011;62754;48.252;11.654;2023-04-16T08:18:46;1.02;;;0.40;;
74269;SDS011;62754;48.252;11.654;2023-04-16T08:21:11;1.90;;;0.25;;
74269;SDS011;62754;48.252;11.654;2023-04-16T08:23:39;0.65;;;0.22;;
74269;SDS011;62754;48.252;11.654;2023-04-16T08:26:05;0.30;;;0.20;;
74269;SDS011;62754;48.252;11.654;2023-04-16T08:28:31;0.65;;;0.30;;
74269;SDS011;62754;48.252;11.654;2023-04-16T08:30:56;0.52;;;0.20;;
74269;SDS011;62754;48.252;11.654;2023-04-16T08:33:24;3.08;;;0.40;;
74269;SDS011;62754;48.252;11.654;2023-04-16T08:35:50;0.82;;;0.30;;
74269;SDS011;62754;48.252;11.654;2023-04-16T08:38:16;1.40;;;0.20;;
74269;SDS011;62754;48.252;11.654;2023-04-16T08:40:42;0.47;;;0.30;;
74269;SDS011;62754;48.252;11.654;2023-04-16T08:43:09;0.82;;;0.30;;
74269;SDS011;62754;48.252;11.654;2023-04-16T08:45:37;0.63;;;0.20;;
74269;SDS011;62754;48.252;11.654;2023-04-16T08:48:05;0.52;;;0.28;;
74269;SDS011;62754;48.252;11.654;2023-04-16T08:50:31;0.65;;;0.20;;
74269;SDS011;62754;48.252;11.654;2023-04-16T08:53:05;0.52;;;0.20;;
74269;SDS011;62754;48.252;11.654;2023-04-16T08:55:35;1.08;;;0.40;;
74269;SDS011;62754;48.252;11.654;2023-04-16T08:58:07;0.75;;;0.30;;
74269;SDS011;62754;48.252;11.654;2023-04-16T09:00:39;0.85;;;0.40;;
74269;SDS011;62754;48.252;11.654;2023-04-16T09:03:05;0.50;;;0.20;;
74269;SDS011;62754;48.252;11.654;2023-04-16T09:05:33;3.00;;;0.30;;
74269;SDS011;62754;48.252;11.654;2023-04-16T09:08:00;1.10;;;0.32;;
74269;SDS011;62754;48.252;11.654;2023-04-16T09:10:26;1.95;;;0.40;;
74269;SDS011;62754;48.252;11.654;2023-04-16T09:12:57;0.90;;;0.30;;
74269;SDS011;62754;48.252;11.654;2023-04-16T09:15:23;0.90;;;0.20;;
74269;SDS011;62754;48.252;11.654;2023-04-16T09:17:52;2.13;;;0.38;;
74269;SDS011;62754;48.252;11.654;2023-04-16T09:20:19;0.68;;;0.30;;
74269;SDS011;62754;48.252;11.654;2023-04-16T09:22:50;1.38;;;0.40;;
74269;SDS011;62754;48.252;11.654;2023-04-16T09:25:18;0.57;;;0.20;;
74269;SDS011;62754;48.252;11.654;2023-04-16T09:27:46;0.57;;;0.10;;
74269;SDS011;62754;48.252;11.654;2023-04-16T09:30:18;1.15;;;0.30;;
74269;SDS011;62754;48.252;11.654;2023-04-16T09:32:46;0.40;;;0.10;;
74269;SDS011;62754;48.252;11.654;2023-04-16T09:35:15;0.98;;;0.32;;
74269;SDS011;62754;48.252;11.654;2023-04-16T09:37:54;0.90;;;0.32;;
74269;SDS011;62754;48.252;11.654;2023-04-16T09:40:23;0.85;;;0.30;;
74269;SDS011;62754;48.252;11.654;2023-04-16T09:42:54;2.05;;;0.20;;
74269;SDS011;62754;48.252;11.654;2023-04-16T09:45:21;0.40;;;0.20;;
74269;SDS011;62754;48.252;11.654;2023-04-16T09:47:47;0.57;;;0.20;;
74269;SDS011;62754;48.252;11.654;2023-04-16T09:50:14;0.22;;;0.10;;
74269;SDS011;62754;48.252;11.654;2023-04-16T09:52:44;0.90;;;0.30;;
74269;SDS011;62754;48.252;11.654;2023-04-16T09:55:13;0.77;;;0.20;;
74269;SDS011;62754;48.252;11.654;2023-04-16T09:57:38;0.30;;;0.20;;
74269;SDS011;62754;48.252;11.654;2023-04-16T10:00:05;0.60;;;0.20;;
74269;SDS011;62754;48.252;11.654;2023-04-16T10:02:34;1.63;;;0.40;;
74269;SDS011;62754;48.252;11.654;2023-04-16T10:05:01;0.60;;;0.20;;
74269;SDS011;62754;48.252;11.654;2023-04-16T10:07:27;0.63;;;0.20;;
74269;SDS011;62754;48.252;11.654;2023-04-16T10:09:54;0.25;;;0.10;;
74269;SDS011;62754;48.252;11.654;2023-04-16T10:12:24;0.98;;;0.30;;
74269;SDS011;62754;48.252;11.654;2023-04-16T10:14:53;1.20;;;0.30;;
74269;SDS011;62754;48.252;11.654;2023-04-16T10:17:18;1.52;;;0.25;;
74269;SDS011;62754;48.252;11.654;2023-04-16T10:22:11;0.28;;;0.15;;
74269;SDS011;62754;48.252;11.654;2023-04-16T10:24:37;0.88;;;0.40;;
74269;SDS011;62754;48.252;11.654;2023-04-16T10:27:05;0.60;;;0.20;;
74269;SDS011;62754;48.252;11.654;2023-04-16T10:29:33;1.08;;;0.52;;
74269;SDS011;62754;48.252;11.654;2023-04-16T10:31:59;3.13;;;1.70;;
74269;SDS011;62754;48.252;11.654;2023-04-16T10:34:25;0.43;;;0.20;;
74269;SDS011;62754;48.252;11.654;2023-04-16T10:36:51;0.28;;;0.10;;
74269;SDS011;62754;48.252;11.654;2023-04-16T10:39:22;0.85;;;0.25;;
74269;SDS011;62754;48.252;11.654;2023-04-16T10:42:05;0.40;;;0.20;;
74269;SDS011;62754;48.252;11.654;2023-04-16T10:44:35;0.90;;;0.30;;
74269;SDS011;62754;48.252;11.654;2023-04-16T10:47:00;0.73;;;0.30;;
74269;SDS011;62754;48.252;11.654;2023-04-16T10:49:34;0.32;;;0.20;;
74269;SDS011;62754;48.252;11.654;2023-04-16T10:52:02;0.50;;;0.25;;
74269;SDS011;62754;48.252;11.654;2023-04-16T10:54:37;0.50;;;0.20;;
74269;SDS011;62754;48.252;11.654;2023-04-16T10:57:06;1.00;;;0.17;;
74269;SDS011;62754;48.252;11.654;2023-04-16T10:59:34;0.75;;;0.20;;
74269;SDS011;62754;48.252;11.654;2023-04-16T11:02:10;0.38;;;0.10;;
74269;SDS011;62754;48.252;11.654;2023-04-16T11:04:46;1.02;;;0.20;;
74269;SDS011;62754;48.252;11.654;2023-04-16T11:07:20;0.77;;;0.30;;
74269;SDS011;62754;48.252;11.654;2023-04-16T11:09:59;0.30;;;0.20;;
74269;SDS011;62754;48.252;11.654;2023-04-16T11:17:35;0.47;;;0.20;;
74269;SDS011;62754;48.252;11.654;2023-04-16T11:20:01;0.47;;;0.20;;
74269;SDS011;62754;48.252;11.654;2023-04-16T11:22:30;1.55;;;0.60;;
74269;SDS011;62754;48.252;11.654;2023-04-16T11:24:58;2.80;;;0.85;;
74269;SDS011;62754;48.252;11.654;2023-04-16T11:27:26;1.05;;;0.40;;
74269;SDS011;62754;48.252;11.654;2023-04-16T11:29:57;0.52;;;0.22;;
74269;SDS011;62754;48.252;11.654;2023-04-16T11:32:24;0.63;;;0.30;;
74269;SDS011;62754;48.252;11.654;2023-04-16T11:34:51;0.10;;;0.10;;
74269;SDS011;62754;48.252;11.654;2023-04-16T11:37:22;1.25;;;0.32;;
74269;SDS011;62754;48.252;11.654;2023-04-16T11:39:56;0.73;;;0.30;;
74269;SDS011;62754;48.252;11.654;2023-04-16T11:42:22;0.70;;;0.30;;
74269;SDS011;62754;48.252;11.654;2023-04-16T11:44:51;0.73;;;0.30;;
74269;SDS011;62754;48.252;11.654;2023-04-16T11:47:18;1.63;;;0.40;;
74269;SDS011;62754;48.252;11.654;2023-04-16T11:49:46;3.65;;;1.52;;
74269;SDS011;62754;48.252;11.654;2023-04-16T11:52:23;1.23;;;0.30;;
74269;SDS011;62754;48.252;11.654;2023-04-16T11:54:52;0.52;;;0.30;;
74269;SDS011;62754;48.252;11.654;2023-04-16T11:57:28;0.80;;;0.30;;
74269;SDS011;62754;48.252;11.654;2023-04-16T11:59:57;0.68;;;0.28;;
74269;SDS011;62754;48.252;11.654;2023-04-16T12:05:06;0.82;;;0.30;;
74269;SDS011;62754;48.252;11.654;2023-04-16T12:07:49;1.20;;;0.40;;
74269;SDS011;62754;48.252;11.654;2023-04-16T12:10:15;0.60;;;0.30;;
74269;SDS011;62754;48.252;11.654;2023-04-16T12:12:41;0.55;;;0.28;;
74269;SDS011;62754;48.252;11.654;2023-04-16T12:15:07;0.68;;;0.30;;
74269;SDS011;62754;48.252;11.654;2023-04-16T12:17:33;0.60;;;0.30;;
74269;SDS011;62754;48.252;11.654;2023-04-16T12:20:07;0.98;;;0.52;;
74269;SDS011;62754;48.252;11.654;2023-04-16T12:22:35;3.45;;;0.90;;
74269;SDS011;62754;48.252;11.654;2023-04-16T12:30:14;0.20;;;0.20;;
74269;SDS011;62754;48.252;11.654;2023-04-16T12:32:41;0.32;;;0.30;;
74269;SDS011;62754;48.252;11.654;2023-04-16T12:35:11;1.30;;;0.30;;
74269;SDS011;62754;48.252;11.654;2023-04-16T12:37:40;1.00;;;0.47;;
74269;SDS011;62754;48.252;11.654;2023-04-16T12:40:09;1.02;;;0.40;;
74269;SDS011;62754;48.252;11.654;2023-04-16T12:42:37;1.13;;;0.43;;
74269;SDS011;62754;48.252;11.654;2023-04-16T12:45:05;1.48;;;0.50;;
74269;SDS011;62754;48.252;11.654;2023-04-16T12:47:31;0.85;;;0.40;;
74269;SDS011;62754;48.252;11.654;2023-04-16T12:49:59;0.70;;;0.30;;
74269;SDS011;62754;48.252;11.654;2023-04-16T12:52:25;1.15;;;0.40;;
74269;SDS011;62754;48.252;11.654;2023-04-16T12:54:51;1.85;;;0.50;;
74269;SDS011;62754;48.252;11.654;2023-04-16T12:57:16;0.60;;;0.30;;
74269;SDS011;62754;48.252;11.654;2023-04-16T12:59:42;1.40;;;0.40;;
74269;SDS011;62754;48.252;11.654;2023-04-16T13:02:08;0.60;;;0.28;;
74269;SDS011;62754;48.252;11.654;2023-04-16T13:04:34;2.45;;;1.10;;
74269;SDS011;62754;48.252;11.654;2023-04-16T13:07:01;2.05;;;1.10;;
74269;SDS011;62754;48.252;11.654;2023-04-16T13:09:27;0.95;;;0.40;;
74269;SDS011;62754;48.252;11.654;2023-04-16T13:11:53;0.63;;;0.30;;
74269;SDS011;62754;48.252;11.654;2023-04-16T13:14:21;0.82;;;0.30;;
74269;SDS011;62754;48.252;11.654;2023-04-16T13:16:47;1.45;;;0.40;;
74269;SDS011;62754;48.252;11.654;2023-04-16T13:19:15;0.55;;;0.30;;
74269;SDS011;62754;48.252;11.654;2023-04-16T13:21:40;0.63;;;0.40;;
74269;SDS011;62754;48.252;11.654;2023-04-16T13:24:09;0.98;;;0.43;;
74269;SDS011;62754;48.252;11.654;2023-04-16T13:26:39;1.02;;;0.32;;
74269;SDS011;62754;48.252;11.654;2023-04-16T13:29:07;1.35;;;0.47;;
74269;SDS011;62754;48.252;11.654;2023-04-16T13:31:36;0.60;;;0.30;;
74269;SDS011;62754;48.252;11.654;2023-04-16T13:34:03;1.20;;;0.60;;
74269;SDS011;62754;48.252;11.654;2023-04-16T13:36:29;1.52;;;0.52;;
74269;SDS011;62754;48.252;11.654;2023-04-16T13:38:55;1.10;;;0.50;;
74269;SDS011;62754;48.252;11.654;2023-04-16T13:41:23;0.68;;;0.30;;
74269;SDS011;62754;48.252;11.654;2023-04-16T13:43:49;1.30;;;0.50;;
74269;SDS011;62754;48.252;11.654;2023-04-16T13:46:17;0.90;;;0.40;;
74269;SDS011;62754;48.252;11.654;2023-04-16T13:48:46;2.08;;;0.55;;
74269;SDS011;62754;48.252;11.654;2023-04-16T13:51:15;1.50;;;0.47;;
74269;SDS011;62754;48.252;11.654;2023-04-16T13:53:43;1.02;;;0.43;;
74269;SDS011;62754;48.252;11.654;2023-04-16T13:56:08;1.05;;;0.40;;
74269;SDS011;62754;48.252;11.654;2023-04-16T13:58:34;1.50;;;0.63;;
74269;SDS011;62754;48.252;11.654;2023-04-16T14:01:00;4.15;;;1.90;;
74269;SDS011;62754;48.252;11.654;2023-04-16T14:03:26;1.48;;;0.63;;
74269;SDS011;62754;48.252;11.654;2023-04-16T14:05:51;0.57;;;0.30;;
74269;SDS011;62754;48.252;11.654;2023-04-16T14:08:19;1.58;;;0.50;;
74269;SDS011;62754;48.252;11.654;2023-04-16T14:10:47;2.50;;;0.50;;
74269;SDS011;62754;48.252;11.654;2023-04-16T14:13:13;1.10;;;0.60;;
74269;SDS011;62754;48.252;11.654;2023-04-16T14:15:44;0.52;;;0.30;;
74269;SDS011;62754;48.252;11.654;2023-04-16T14:18:09;1.20;;;0.43;;
74269;SDS011;62754;48.252;11.654;2023-04-16T14:20:35;1.90;;;0.60;;
74269;SDS011;62754;48.252;11.654;2023-04-16T14:23:01;1.50;;;0.70;;
74269;SDS011;62754;48.252;11.654;2023-04-16T14:25:27;1.27;;;0.60;;
74269;SDS011;62754;48.252;11.654;2023-04-16T14:27:55;1.27;;;0.57;;
74269;SDS011;62754;48.252;11.654;2023-04-16T14:30:25;2.00;;;0.70;;
74269;SDS011;62754;48.252;11.654;2023-04-16T14:32:51;1.55;;;0.50;;
74269;SDS011;62754;48.252;11.654;2023-04-16T14:35:17;1.40;;;0.63;;
74269;SDS011;62754;48.252;11.654;2023-04-16T14:37:43;1.50;;;0.63;;
74269;SDS011;62754;48.252;11.654;2023-04-16T14:40:09;1.25;;;0.52;;
74269;SDS011;62754;48.252;11.654;2023-04-16T14:42:38;1.55;;;0.52;;
74269;SDS011;62754;48.252;11.654;2023-04-16T14:45:04;1.63;;;0.52;;
74269;SDS011;62754;48.252;11.654;2023-04-16T14:47:30;1.73;;;0.50;;
74269;SDS011;62754;48.252;11.654;2023-04-16T14:49:59;1.27;;;0.50;;